createdAt,value
2023-01-04T00:04:48.613Z,97030.78
2023-01-04T00:09:52.448Z,97033.03
2023-01-04T00:14:54.010Z,97030.19
2023-01-04T00:19:55.681Z,97030.50
2023-01-04T00:24:57.821Z,97015.81
2023-01-04T00:30:01.431Z,97015.81
2023-01-04T00:35:05.140Z,97015.19
2023-01-04T00:40:09.530Z,96997.75
2023-01-04T00:45:11.115Z,96988.06
2023-01-04T00:50:16.532Z,96979.56
2023-01-04T00:55:18.085Z,96989.63
2023-01-04T01:00:23.642Z,96989.63
2023-01-04T01:05:28.747Z,96996.50
2023-01-04T01:10:30.352Z,96994.59
2023-01-04T01:15:34.492Z,97007.03
2023-01-04T01:20:41.386Z,97005.13
2023-01-04T01:25:47.535Z,97005.13
2023-01-04T01:30:56.647Z,97006.69
2023-01-04T01:36:05.617Z,96996.78
2023-01-04T01:41:10.421Z,96997.88
2023-01-04T01:46:17.206Z,96980.34
2023-01-04T01:51:19.542Z,96984.53
2023-01-04T01:56:23.642Z,96972.41
2023-01-04T02:01:26.145Z,96982.81
2023-01-04T02:06:35.881Z,96982.69
2023-01-04T02:11:37.391Z,96981.41
2023-01-04T02:17:01.782Z,96969.00
2023-01-04T02:22:42.913Z,96965.47
2023-01-04T02:27:55.516Z,96956.53
2023-01-04T02:33:10.729Z,96942.19
2023-01-04T02:38:22.305Z,96935.19
2023-01-04T02:43:54.177Z,96940.66
2023-01-04T02:49:23.086Z,96937.69
2023-01-04T02:54:30.810Z,96940.75
2023-01-04T02:59:44.632Z,96934.19
2023-01-04T03:05:13.236Z,96938.50
2023-01-04T03:10:21.269Z,96942.78
2023-01-04T03:15:28.139Z,96942.47
2023-01-04T03:20:33.103Z,96940.06
2023-01-04T03:26:03.804Z,96926.25
2023-01-04T03:31:50.444Z,96915.28
2023-01-04T03:37:07.586Z,96910.38
2023-01-04T03:42:39.416Z,96904.81
2023-01-04T03:48:02.080Z,96909.97
2023-01-04T03:53:07.478Z,96899.78
2023-01-04T03:58:09.286Z,96880.63
2023-01-04T04:03:10.848Z,96861.66
2023-01-04T04:08:30.616Z,96860.84
2023-01-04T04:13:34.845Z,96864.22
2023-01-04T04:18:36.430Z,96854.53
2023-01-04T04:23:37.959Z,96865.19
2023-01-04T04:28:42.560Z,96863.03
2023-01-04T04:33:46.175Z,96861.91
2023-01-04T04:38:47.732Z,96871.34
2023-01-04T04:43:54.080Z,96863.34
2023-01-04T04:48:56.226Z,96860.19
2023-01-04T04:53:57.780Z,96851.41
2023-01-04T04:59:01.601Z,96839.13
2023-01-04T05:04:09.805Z,96845.19
2023-01-04T05:09:14.766Z,96844.53
2023-01-04T05:14:16.331Z,96848.31
2023-01-04T05:19:22.424Z,96849.88
2023-01-04T05:24:26.246Z,96838.72
2023-01-04T05:29:50.865Z,96832.31
2023-01-04T05:34:52.357Z,96833.31
2023-01-04T05:39:56.231Z,96852.91
2023-01-04T05:44:59.502Z,96844.47
2023-01-04T05:50:01.062Z,96842.88
2023-01-04T05:55:03.400Z,96837.59
2023-01-04T06:00:07.093Z,96831.84
2023-01-04T06:05:16.430Z,96824.19
2023-01-04T06:10:23.016Z,96820.41
2023-01-04T06:15:24.573Z,96814.53
2023-01-04T06:20:35.993Z,96813.53
2023-01-04T06:25:38.612Z,96810.03
2023-01-04T06:30:45.696Z,96816.50
2023-01-04T06:35:57.536Z,96820.25
2023-01-04T06:40:59.518Z,96815.47
2023-01-04T06:46:01.522Z,96815.25
2023-01-04T06:51:04.397Z,96818.53
2023-01-04T06:56:08.060Z,96824.88
2023-01-04T07:01:09.835Z,96806.81
2023-01-04T07:06:13.964Z,96817.19
2023-01-04T07:11:19.013Z,96793.25
2023-01-04T07:16:24.515Z,96802.66
2023-01-04T07:21:30.917Z,96798.78
2023-01-04T07:26:35.460Z,96797.91
2023-01-04T07:31:37.015Z,96768.75
2023-01-04T07:36:46.345Z,96774.28
2023-01-04T07:41:49.001Z,96774.75
2023-01-04T07:46:56.749Z,96760.59
2023-01-04T07:52:01.250Z,96770.75
2023-01-04T07:57:02.760Z,96779.81
2023-01-04T08:02:10.272Z,96766.69
2023-01-04T08:07:14.322Z,96770.00
2023-01-04T08:12:19.462Z,96765.00
2023-01-04T08:17:20.974Z,96764.78
2023-01-04T08:22:24.563Z,96765.72
2023-01-04T08:27:26.204Z,96753.97
2023-01-04T08:32:29.860Z,96748.00
2023-01-04T08:37:31.986Z,96745.53
2023-01-04T08:42:33.502Z,96743.38
2023-01-04T08:47:34.981Z,96731.06
2023-01-04T08:52:36.452Z,96716.59
2023-01-04T08:57:38.158Z,96719.22
2023-01-04T09:02:39.841Z,96708.47
2023-01-04T09:07:43.938Z,96713.78
2023-01-04T09:12:47.829Z,96706.06
2023-01-04T09:18:29.572Z,96702.69
2023-01-04T09:23:16.313Z,96695.34
2023-01-04T09:28:18.485Z,96687.19
2023-01-04T09:33:35.836Z,96680.75
2023-01-04T09:38:48.981Z,96675.88
2023-01-04T09:43:52.589Z,96661.16
2023-01-04T09:49:15.210Z,96669.28
2023-01-04T09:54:23.182Z,96667.81
2023-01-04T09:59:34.661Z,96662.13
2023-01-04T10:04:51.506Z,96659.31
2023-01-04T10:10:00.533Z,96637.66
2023-01-04T10:15:26.836Z,96644.25
2023-01-04T10:21:21.764Z,96630.66
2023-01-04T10:26:17.836Z,96624.88
2023-01-04T10:31:40.191Z,96608.00
2023-01-04T10:36:47.463Z,96600.53
2023-01-04T10:42:16.056Z,96590.22
2023-01-04T10:47:29.747Z,96585.31
2023-01-04T10:52:50.766Z,96574.13
2023-01-04T10:58:04.853Z,96569.91
2023-01-04T11:03:18.865Z,96576.31
2023-01-04T11:08:28.639Z,96564.78
2023-01-04T11:13:31.183Z,96558.19
2023-01-04T11:18:40.141Z,96551.41
2023-01-04T11:23:41.639Z,96539.50
2023-01-04T11:29:03.040Z,96539.63
2023-01-04T11:34:04.646Z,96537.00
2023-01-04T11:39:23.309Z,96525.78
2023-01-04T11:44:27.471Z,96517.47
2023-01-04T11:49:35.495Z,96502.38
2023-01-04T11:54:38.825Z,96493.34
2023-01-04T11:59:43.137Z,96486.41
2023-01-04T12:04:44.669Z,96495.91
2023-01-04T12:09:50.392Z,96486.88
2023-01-04T12:14:52.277Z,96483.88
2023-01-04T12:19:59.158Z,96478.25
2023-01-04T12:25:06.172Z,96465.59
2023-01-04T12:30:08.681Z,96443.94
2023-01-04T12:36:07.510Z,96421.97
2023-01-04T12:41:09.056Z,96421.13
2023-01-04T12:46:59.108Z,96432.97
2023-01-04T12:52:30.629Z,96431.25
2023-01-04T12:57:37.880Z,96420.22
2023-01-04T13:02:53.283Z,96418.44
2023-01-04T13:07:59.911Z,96411.66
2023-01-04T13:13:35.770Z,96414.13
2023-01-04T13:18:43.304Z,96422.72
2023-01-04T13:24:03.355Z,96415.94
2023-01-04T13:29:13.164Z,96404.31
2023-01-04T13:34:59.973Z,96388.47
2023-01-04T13:40:26.714Z,96388.91
2023-01-04T13:45:43.076Z,96369.41
2023-01-04T13:51:06.806Z,96377.69
2023-01-04T13:56:20.699Z,96369.63
2023-01-04T14:01:34.277Z,96361.06
2023-01-04T14:06:45.458Z,96357.91
2023-01-04T14:12:07.374Z,96346.31
2023-01-04T14:17:12.694Z,96342.78
2023-01-04T14:22:23.506Z,96324.41
2023-01-04T14:27:40.343Z,96327.59
2023-01-04T14:32:53.684Z,96321.81
2023-01-04T14:38:02.195Z,96339.41
2023-01-04T14:43:35.195Z,96337.53
2023-01-04T14:48:36.897Z,96332.00
2023-01-04T14:53:38.757Z,96333.19
2023-01-04T14:58:40.737Z,96346.41
2023-01-04T15:03:42.528Z,96341.47
2023-01-04T15:08:44.332Z,96337.22
2023-01-04T15:13:46.034Z,96313.13
2023-01-04T15:18:49.416Z,96338.78
2023-01-04T15:23:51.144Z,96325.97
2023-01-04T15:28:53.235Z,96321.44
2023-01-04T15:33:55.251Z,96301.00
2023-01-04T15:38:57.192Z,96312.22
2023-01-04T15:43:59.733Z,96315.00
2023-01-04T15:49:02.586Z,96305.63
2023-01-04T15:54:04.692Z,96294.75
2023-01-04T15:59:06.693Z,96286.63
2023-01-04T16:04:09.370Z,96266.31
2023-01-04T16:09:11.487Z,96253.78
2023-01-04T16:14:13.261Z,96240.19
2023-01-04T16:19:15.268Z,96249.53
2023-01-04T16:24:44.779Z,96228.47
2023-01-04T16:29:38.554Z,96202.47
2023-01-04T16:34:40.241Z,96212.19
2023-01-04T16:40:06.318Z,96218.47
2023-01-04T16:45:04.156Z,96198.31
2023-01-04T16:50:07.266Z,96233.72
2023-01-04T16:55:09.442Z,96212.72
2023-01-04T17:00:12.034Z,96224.34
2023-01-04T17:05:13.986Z,96217.38
2023-01-04T17:10:15.786Z,96220.88
2023-01-04T17:20:42.204Z,96195.22
2023-01-04T17:25:43.873Z,96196.00
2023-01-04T17:30:45.639Z,96191.34
2023-01-04T17:35:47.386Z,96181.59
2023-01-04T17:40:49.135Z,96177.25
2023-01-04T17:45:50.979Z,96193.19
2023-01-04T17:50:52.802Z,96195.09
2023-01-04T18:00:56.596Z,96178.84
2023-01-04T18:06:24.397Z,96174.94
2023-01-04T18:11:20.775Z,96174.19
2023-01-04T18:16:28.289Z,96155.09
2023-01-04T18:21:31.508Z,96151.28
2023-01-04T18:26:53.435Z,96157.06
2023-01-04T18:31:55.889Z,96155.56
2023-01-04T18:37:04.812Z,96152.91
2023-01-04T18:42:14.103Z,96154.88
2023-01-04T18:47:21.750Z,96144.72
2023-01-04T18:52:23.513Z,96147.47
2023-01-04T18:57:26.551Z,96134.94
2023-01-04T19:02:28.669Z,96131.88
2023-01-04T19:07:30.877Z,96133.81
2023-01-04T19:12:32.800Z,96127.72
2023-01-04T19:17:35.753Z,96118.78
2023-01-04T19:22:37.933Z,96110.22
2023-01-04T19:27:39.840Z,96098.91
2023-01-04T19:32:42.824Z,96104.41
2023-01-04T19:37:44.938Z,96095.91
2023-01-04T19:42:47.325Z,96095.94
2023-01-04T19:47:51.247Z,96096.34
2023-01-04T19:52:53.129Z,96086.97
2023-01-04T19:57:55.229Z,96108.47
2023-01-04T20:02:57.443Z,96101.91
2023-01-04T20:07:59.492Z,96106.97
2023-01-04T20:13:01.444Z,96086.66
2023-01-04T20:18:05.987Z,96089.41
2023-01-04T20:23:13.660Z,96078.94
2023-01-04T20:28:17.203Z,96083.25
2023-01-04T20:33:18.965Z,96069.31
2023-01-04T20:38:20.901Z,96061.19
2023-01-04T20:43:36.418Z,96063.94
2023-01-04T20:48:39.865Z,96085.03
2023-01-04T20:53:43.637Z,96059.69
2023-01-04T20:58:47.552Z,96071.03
2023-01-04T21:03:49.739Z,96081.97
2023-01-04T21:08:55.260Z,96087.44
2023-01-04T21:13:59.507Z,96079.19
2023-01-04T21:19:01.340Z,96064.09
2023-01-04T21:24:03.355Z,96058.66
2023-01-04T21:29:05.224Z,96060.97
2023-01-04T21:34:13.033Z,96057.13
2023-01-04T21:39:16.992Z,96051.66
2023-01-04T21:44:19.170Z,96061.38
2023-01-04T21:49:22.981Z,96053.63
2023-01-04T21:54:24.999Z,96063.81
2023-01-04T21:59:26.947Z,96075.84
2023-01-04T22:04:29.458Z,96071.59
2023-01-04T22:09:31.280Z,96043.56
2023-01-04T22:14:34.029Z,96057.63
2023-01-04T22:19:35.927Z,96051.00
2023-01-04T22:24:38.458Z,96050.25
2023-01-04T22:29:40.758Z,96031.16
2023-01-04T22:34:42.944Z,96037.41
2023-01-04T22:39:44.742Z,96030.81
2023-01-04T22:44:46.749Z,96036.22
2023-01-04T22:49:49.609Z,96039.34
2023-01-04T22:54:51.554Z,96038.22
2023-01-04T22:59:54.603Z,96030.75
2023-01-04T23:04:58.809Z,96019.13
2023-01-04T23:10:00.798Z,96035.88
2023-01-04T23:15:04.384Z,96029.34
2023-01-04T23:20:10.398Z,96051.88
2023-01-04T23:25:12.636Z,96005.97
2023-01-04T23:30:16.254Z,96017.25
2023-01-04T23:35:18.606Z,96033.28
2023-01-04T23:40:21.358Z,96027.81
2023-01-04T23:45:24.072Z,96034.50
2023-01-04T23:50:26.146Z,96021.28
2023-01-04T23:55:29.263Z,96017.00
